Airfield :







YOU CAN JOIN US ON...

 
LOGIN :

Register | Disclaimer

   EN    FR    IT 

 









Legend :    VFR   Marginal VFR   IFR   Intensive IFR   Very Intensive IFR
Visi :
Ceiling :
>= 8 km
>= 3000ft
5 to 8 km
1000 to 3000 ft
1500m to 5 km
500 to 1000 ft
800 to 1500m
200 to 500 ft
< 800m
< 200 ft
Symbols :   Thunderstorms  Fog  Heavy snow  Heavy precipitations  Wind > 20 kt






- Airport Elevation : 534 ft
- IATA code : PQI


KPQI - Northern Maine Regional Arpt At Presque Isle

CURRENT METAR :
  • 161856Z AUTO 13009KT 10SM CLR 14/02 A2996 RMK AO2 SLP173 T01440017

EXPIRED METARs :
  • 161756Z AUTO 11009KT 10SM CLR 14/02 A2999 RMK AO2 SLP182 T01440017 10144 20017 56026
  • 161656Z AUTO 14007KT 10SM CLR 13/02 A3000 RMK AO2 SLP190 T01330017

TAF KPQI
Valid from the 16 at 18:00 until the 17 at 18:00 UTC


161733Z 1618/1718 16007KT P6SM BKN200
FM170900 09009KT P6SM VCSH OVC060
FM171100 08013G21KT 5SM -RA OVC045 WS020/08045KT
FM171300 07018G30KT 2SM RA OVC010 WS020/07040KT



MET'MAP, your aeronautical weather chart ! - Copyright ORBIFLY December 2007 - Disclaimer

ORBIFLY MET'MAP TEAM :

Programming & Development : Alexandra Zaïnal
Concept & Development : Baudouin d'Aumeries
Co-Development & Prog : Marc-Olivier Méhu
Technical & hardware support : Manuel Goepfert

Contact : metmap@orbifly.com




SOURCES & CREDITS :

   NOAA